Rhodes, Michigan
Current Conditions -  °F | °C
As of 12:32 PM on Thursday 23 Oct 2014 (Local Time) from KIKW Reporting Station
Overcast Overcast  
Wind Chill: 39°   Ceiling: 1200
Heat Index: 43°   Visibility: 10mi
Dew Point: 39°   Wind: 7mph
Humidity: 84%   Direction: 250°WSW
Pressure: 30.24"   Gusts: NA
Location:  43.9°N, 84.18°W
Report Text: KIKW 231632Z AUTO 25006KT 10SM OVC012 06/04 A3024 RMK AO2 T00630037
Loading
Personal Weather Stations






























Interactive Weather Map
Tropical Storm Tracking
New forecast layout! Learn more

10-Day Weather Forecast

Advertisements
Track Severe Weather on mobile